Time;durP1;ratioP1;P1;durP2;ratioP2;P2;SDS_P1;SDS_P2;PMS_P1;PMS_P2;Temp;Humidity;BMP_temperature;BMP_pressure;BME280_temperature;BME280_humidity;BME280_pressure;Samples;Min_cycle;Max_cycle;Signal;HPM_P1;HPM_P2
2021/08/25 00:01:36;;;;;;;104.85;14.48;;;;;;;;;;5111511;28;24424;-61
2021/08/25 00:04:03;;;;;;;9.50;8.70;;;;;;;;;;5109537;28;24410;-61
2021/08/25 00:06:28;;;;;;;8.82;8.13;;;;;;;;;;5106795;28;24421;-61
2021/08/25 00:08:53;;;;;;;9.10;8.30;;;;;;;;;;5107025;28;24837;-61
2021/08/25 00:11:18;;;;;;;9.40;8.50;;;;;;;;;;5109202;28;24451;-61
2021/08/25 00:13:44;;;;;;;9.10;8.20;;;;;;;;;;5108039;28;24996;-61
2021/08/25 00:16:09;;;;;;;8.47;7.77;;;;;;;;;;5107212;28;24410;-61
2021/08/25 00:18:34;;;;;;;8.27;7.57;;;;;;;;;;5107219;28;24860;-61
2021/08/25 00:20:59;;;;;;;8.93;8.13;;;;;;;;;;5107669;28;24471;-60
2021/08/25 00:23:25;;;;;;;8.30;7.60;;;;;;;;;;5113022;28;24961;-61
2021/08/25 00:25:53;;;;;;;9.00;8.20;;;;;;;;;;5126607;28;24406;-61
2021/08/25 00:28:18;;;;;;;8.30;7.60;;;;;;;;;;5107905;28;24410;-61
2021/08/25 00:30:44;;;;;;;8.40;7.70;;;;;;;;;;5112959;28;24485;-61
2021/08/25 00:33:09;;;;;;;8.25;7.55;;;;;;;;;;5120684;28;24422;-62
2021/08/25 00:35:34;;;;;;;8.00;7.30;;;;;;;;;;5111532;28;24958;-61
2021/08/25 00:37:59;;;;;;;7.88;7.18;;;;;;;;;;5111347;27;24454;-61
2021/08/25 00:40:24;;;;;;;8.20;7.50;;;;;;;;;;5110478;28;24414;-61
2021/08/25 00:42:49;;;;;;;8.20;7.40;;;;;;;;;;5111392;27;24414;-61
2021/08/25 00:45:14;;;;;;;8.80;8.10;;;;;;;;;;5122445;27;24465;-61
2021/08/25 00:47:40;;;;;;;8.05;7.35;;;;;;;;;;5114281;27;24425;-61
2021/08/25 00:50:06;;;;;;;8.20;7.40;;;;;;;;;;5110013;27;24437;-61
2021/08/25 00:52:33;;;;;;;8.00;7.30;;;;;;;;;;5111267;27;24810;-61
2021/08/25 00:54:59;;;;;;;7.82;7.15;;;;;;;;;;5121781;27;24475;-61
2021/08/25 00:57:25;;;;;;;6.90;6.30;;;;;;;;;;5116920;27;24406;-61
2021/08/25 00:59:50;;;;;;;7.20;6.60;;;;;;;;;;5110350;27;24466;-60
2021/08/25 01:02:18;;;;;;;7.57;6.87;;;;;;;;;;5130523;27;24962;-61
2021/08/25 01:04:46;;;;;;;7.10;6.50;;;;;;;;;;5118435;27;24980;-61
2021/08/25 01:07:13;;;;;;;7.70;7.00;;;;;;;;;;5109574;28;24969;-61
2021/08/25 01:09:38;;;;;;;7.25;6.65;;;;;;;;;;5109578;28;24452;-62
2021/08/25 01:12:04;;;;;;;7.95;7.25;;;;;;;;;;5116230;27;24963;-60
2021/08/25 01:14:30;;;;;;;7.57;6.97;;;;;;;;;;5118852;27;24410;-61
2021/08/25 01:16:56;;;;;;;7.40;6.80;;;;;;;;;;5112020;27;24959;-60
2021/08/25 01:19:21;;;;;;;7.00;6.40;;;;;;;;;;5111172;27;24416;-60
2021/08/25 01:21:47;;;;;;;7.00;6.40;;;;;;;;;;5110205;27;24417;-60
2021/08/25 01:24:13;;;;;;;7.30;6.70;;;;;;;;;;5120367;27;24536;-61
2021/08/25 01:26:39;;;;;;;7.50;6.80;;;;;;;;;;5109411;27;24470;-60
2021/08/25 01:29:04;;;;;;;8.40;7.60;;;;;;;;;;5113003;27;24428;-60
2021/08/25 01:31:29;;;;;;;7.53;6.90;;;;;;;;;;5130292;27;24409;-60
2021/08/25 01:34:05;;;;;;;7.43;6.83;;;;;;;;;;5111295;27;24501;-60
2021/08/25 01:36:30;;;;;;;7.15;6.55;;;;;;;;;;5120805;27;24457;-60
2021/08/25 01:38:56;;;;;;;7.80;7.10;;;;;;;;;;5108967;27;24504;-60
2021/08/25 01:41:21;;;;;;;7.00;6.40;;;;;;;;;;5109997;28;24409;-60
2021/08/25 01:43:47;;;;;;;7.30;6.60;;;;;;;;;;5118775;27;24448;-60
2021/08/25 01:46:19;;;;;;;7.00;6.40;;;;;;;;;;5119946;27;25009;-63
2021/08/25 01:48:44;;;;;;;7.00;6.40;;;;;;;;;;5110313;27;24414;-61
2021/08/25 01:51:09;;;;;;;7.03;6.43;;;;;;;;;;5112991;27;24440;-60
2021/08/25 01:53:34;;;;;;;6.68;6.18;;;;;;;;;;5123377;27;24892;-61
2021/08/25 01:56:00;;;;;;;7.23;6.53;;;;;;;;;;5116890;27;24454;-60
2021/08/25 01:58:25;;;;;;;6.45;5.95;;;;;;;;;;5110160;27;24763;-60
2021/08/25 02:00:50;;;;;;;7.03;6.43;;;;;;;;;;5109407;27;24813;-61
2021/08/25 02:03:15;;;;;;;7.15;6.55;;;;;;;;;;5120998;27;24486;-61
2021/08/25 02:05:40;;;;;;;7.07;6.47;;;;;;;;;;5120475;27;24505;-60
2021/08/25 02:08:05;;;;;;;7.17;6.57;;;;;;;;;;5110198;27;24421;-60
2021/08/25 02:10:30;;;;;;;6.65;6.15;;;;;;;;;;5108991;28;24521;-60
2021/08/25 02:12:56;;;;;;;6.37;5.87;;;;;;;;;;5109677;27;24417;-60
2021/08/25 02:15:21;;;;;;;7.00;6.40;;;;;;;;;;5109764;28;24417;-60
2021/08/25 02:17:46;;;;;;;6.80;6.20;;;;;;;;;;5116425;27;24533;-60
2021/08/25 02:20:11;;;;;;;6.70;6.10;;;;;;;;;;5113395;27;24420;-60
2021/08/25 02:22:36;;;;;;;6.53;5.93;;;;;;;;;;5122512;27;24416;-61
2021/08/25 02:25:02;;;;;;;7.20;6.60;;;;;;;;;;5107304;28;24844;-60
2021/08/25 02:27:27;;;;;;;7.40;6.70;;;;;;;;;;5107824;27;26459;-60
2021/08/25 02:29:58;;;;;;;7.50;6.90;;;;;;;;;;5120327;27;24433;-60
2021/08/25 02:32:24;;;;;;;7.50;6.90;;;;;;;;;;5114697;27;24957;-60
2021/08/25 02:34:49;;;;;;;7.47;6.80;;;;;;;;;;5112372;27;24500;-60
2021/08/25 02:37:14;;;;;;;6.73;6.17;;;;;;;;;;5109177;28;24482;-60
2021/08/25 02:39:40;;;;;;;6.87;6.30;;;;;;;;;;5110136;27;24899;-60
2021/08/25 02:42:05;;;;;;;7.35;6.65;;;;;;;;;;5111676;27;24508;-62
2021/08/25 02:44:30;;;;;;;7.25;6.65;;;;;;;;;;5111313;27;24418;-62
2021/08/25 02:46:55;;;;;;;6.40;5.90;;;;;;;;;;5108796;28;24451;-62
2021/08/25 02:49:20;;;;;;;6.10;5.60;;;;;;;;;;5115811;27;24444;-63
2021/08/25 02:51:45;;;;;;;6.97;6.37;;;;;;;;;;5108522;27;25098;-63
2021/08/25 02:54:11;;;;;;;7.18;6.57;;;;;;;;;;5108878;28;24434;-62
2021/08/25 02:56:36;;;;;;;7.10;6.50;;;;;;;;;;5110771;27;24413;-63
2021/08/25 02:59:01;;;;;;;6.90;6.30;;;;;;;;;;5114011;27;25052;-63
2021/08/25 03:01:26;;;;;;;6.50;5.97;;;;;;;;;;5108368;27;25051;-64
2021/08/25 03:03:51;;;;;;;13.68;12.48;;;;;;;;;;5109516;27;25032;-63
2021/08/25 03:06:16;;;;;;;11.23;10.27;;;;;;;;;;5123963;27;24412;-63
2021/08/25 03:08:41;;;;;;;10.83;9.83;;;;;;;;;;5108476;27;24428;-63
2021/08/25 03:11:08;;;;;;;8.30;7.60;;;;;;;;;;5108827;27;25001;-63
2021/08/25 03:13:33;;;;;;;7.40;6.70;;;;;;;;;;5108457;28;24764;-63
2021/08/25 03:15:58;;;;;;;6.20;5.70;;;;;;;;;;5118540;27;25064;-63
2021/08/25 03:18:23;;;;;;;6.07;5.47;;;;;;;;;;5116483;27;24456;-63
2021/08/25 03:20:49;;;;;;;6.23;5.73;;;;;;;;;;5108924;28;24425;-62
2021/08/25 03:23:14;;;;;;;6.23;5.73;;;;;;;;;;5104404;28;24437;-63
2021/08/25 03:25:39;;;;;;;6.20;5.50;;;;;;;;;;5107892;28;24517;-63
2021/08/25 03:28:04;;;;;;;6.40;5.90;;;;;;;;;;5107937;28;24504;-63
2021/08/25 03:30:29;;;;;;;5.90;5.40;;;;;;;;;;5107984;28;24441;-64
2021/08/25 03:32:54;;;;;;;5.70;5.20;;;;;;;;;;5115171;27;24413;-63
2021/08/25 03:35:20;;;;;;;6.30;5.80;;;;;;;;;;5114390;27;24409;-62
2021/08/25 03:37:45;;;;;;;6.57;6.07;;;;;;;;;;5108174;27;24889;-62
2021/08/25 03:40:10;;;;;;;6.57;6.07;;;;;;;;;;5108680;28;24405;-63
2021/08/25 03:42:35;;;;;;;6.50;6.00;;;;;;;;;;5108501;28;24421;-62
2021/08/25 03:45:00;;;;;;;6.40;5.80;;;;;;;;;;5108043;28;24438;-63
2021/08/25 03:47:26;;;;;;;6.60;6.10;;;;;;;;;;5117455;27;24947;-64
2021/08/25 03:49:51;;;;;;;6.47;5.97;;;;;;;;;;5116522;28;24795;-64
2021/08/25 03:52:16;;;;;;;6.00;5.50;;;;;;;;;;5108920;28;24417;-63
2021/08/25 03:54:42;;;;;;;6.40;5.90;;;;;;;;;;5112406;28;24506;-63
2021/08/25 03:57:07;;;;;;;6.90;6.30;;;;;;;;;;5108070;28;25328;-62
2021/08/25 03:59:32;;;;;;;7.43;6.82;;;;;;;;;;5123344;28;24456;-63
2021/08/25 04:01:57;;;;;;;6.60;6.10;;;;;;;;;;5110428;28;24409;-63
2021/08/25 04:04:22;;;;;;;6.67;6.07;;;;;;;;;;5118133;28;24441;-63
2021/08/25 04:06:47;;;;;;;7.00;6.50;;;;;;;;;;5118307;28;24759;-62
2021/08/25 04:09:12;;;;;;;6.40;5.90;;;;;;;;;;5109876;28;24432;-63
2021/08/25 04:11:38;;;;;;;6.85;6.35;;;;;;;;;;5116573;27;24420;-62
2021/08/25 04:14:03;;;;;;;6.60;6.10;;;;;;;;;;5119837;27;24766;-64
2021/08/25 04:16:28;;;;;;;5.20;4.87;;;;;;;;;;5117716;27;24516;-63
2021/08/25 04:18:53;;;;;;;5.70;5.30;;;;;;;;;;5115734;27;24410;-63
2021/08/25 04:21:19;;;;;;;4.93;4.63;;;;;;;;;;5118007;27;24416;-63
2021/08/25 04:23:44;;;;;;;5.90;5.50;;;;;;;;;;5115107;27;24497;-63
2021/08/25 04:26:10;;;;;;;5.15;4.80;;;;;;;;;;5118434;27;24485;-64
2021/08/25 04:28:35;;;;;;;5.73;5.33;;;;;;;;;;5132159;27;24500;-63
2021/08/25 04:31:00;;;;;;;5.00;4.60;;;;;;;;;;5120619;27;24476;-64
2021/08/25 04:33:25;;;;;;;6.13;5.72;;;;;;;;;;5111927;27;25004;-63
2021/08/25 04:35:50;;;;;;;5.43;5.00;;;;;;;;;;5120360;27;24416;-64
2021/08/25 04:38:15;;;;;;;5.78;5.38;;;;;;;;;;5108943;27;25263;-62
2021/08/25 04:40:41;;;;;;;5.60;5.20;;;;;;;;;;5123383;27;24407;-63
2021/08/25 04:43:06;;;;;;;6.00;5.60;;;;;;;;;;5122751;27;24413;-63
2021/08/25 04:45:31;;;;;;;6.10;5.70;;;;;;;;;;5116696;27;24447;-63
2021/08/25 04:47:56;;;;;;;5.23;4.83;;;;;;;;;;5111419;27;24414;-63
2021/08/25 04:50:22;;;;;;;5.47;5.07;;;;;;;;;;5111019;27;24434;-63
2021/08/25 04:52:47;;;;;;;4.60;4.30;;;;;;;;;;5110886;27;24521;-63
2021/08/25 04:55:12;;;;;;;4.50;4.20;;;;;;;;;;5112723;27;24416;-61
2021/08/25 04:57:37;;;;;;;4.75;4.45;;;;;;;;;;5110843;28;24990;-63
2021/08/25 05:00:03;;;;;;;4.83;4.53;;;;;;;;;;5110796;27;24401;-63
2021/08/25 05:02:28;;;;;;;5.55;5.15;;;;;;;;;;5115537;27;24420;-63
2021/08/25 05:04:53;;;;;;;4.22;3.92;;;;;;;;;;5111045;27;24450;-63
2021/08/25 05:07:18;;;;;;;3.70;3.50;;;;;;;;;;5115944;27;24432;-62
2021/08/25 05:09:43;;;;;;;4.70;4.40;;;;;;;;;;5118063;27;24985;-62
2021/08/25 05:12:08;;;;;;;3.40;3.20;;;;;;;;;;5110542;27;24418;-62
2021/08/25 05:14:34;;;;;;;3.60;3.40;;;;;;;;;;5116620;27;24421;-61
2021/08/25 05:17:00;;;;;;;4.17;3.87;;;;;;;;;;5110533;27;24475;-62
2021/08/25 05:19:26;;;;;;;4.85;4.50;;;;;;;;;;5122073;27;24421;-61
2021/08/25 05:21:51;;;;;;;4.60;4.20;;;;;;;;;;5115058;27;24424;-61
2021/08/25 05:24:16;;;;;;;4.80;4.50;;;;;;;;;;5111984;27;24412;-62
2021/08/25 05:26:41;;;;;;;5.68;5.18;;;;;;;;;;5111586;27;24422;-62
2021/08/25 05:29:06;;;;;;;4.60;4.30;;;;;;;;;;5109973;27;24871;-62
2021/08/25 05:31:32;;;;;;;6.00;5.50;;;;;;;;;;5108743;27;24413;-63
2021/08/25 05:33:58;;;;;;;6.40;5.90;;;;;;;;;;5109159;27;24425;-62
2021/08/25 05:36:23;;;;;;;5.90;5.50;;;;;;;;;;5109647;28;24410;-63
2021/08/25 05:38:49;;;;;;;5.50;5.10;;;;;;;;;;5107688;28;24421;-64
2021/08/25 05:41:14;;;;;;;8.90;6.28;;;;;;;;;;5108410;28;24406;-62
2021/08/25 05:43:39;;;;;;;6.05;5.55;;;;;;;;;;5107639;28;24557;-62
2021/08/25 05:46:04;;;;;;;6.10;5.60;;;;;;;;;;5109493;27;24424;-63
2021/08/25 05:48:29;;;;;;;5.87;5.47;;;;;;;;;;5108644;27;24959;-62
2021/08/25 05:50:54;;;;;;;6.43;6.03;;;;;;;;;;5117441;27;24585;-62
2021/08/25 05:53:20;;;;;;;6.57;6.07;;;;;;;;;;5115676;27;24555;-61
2021/08/25 05:55:45;;;;;;;6.40;5.90;;;;;;;;;;5111107;27;24744;-61
2021/08/25 05:58:10;;;;;;;6.40;5.90;;;;;;;;;;5113563;27;24410;-61
2021/08/25 06:00:35;;;;;;;9.10;8.40;;;;;;;;;;5109675;27;25017;-61
2021/08/25 06:03:00;;;;;;;7.15;6.55;;;;;;;;;;5118486;27;24448;-62
2021/08/25 06:05:26;;;;;;;7.25;6.75;;;;;;;;;;5106209;27;24429;-62
2021/08/25 06:07:51;;;;;;;7.00;6.50;;;;;;;;;;5106553;27;24962;-63
2021/08/25 06:10:16;;;;;;;8.70;8.00;;;;;;;;;;5104798;27;24994;-62
2021/08/25 06:12:41;;;;;;;7.30;6.70;;;;;;;;;;5109529;27;24894;-63
2021/08/25 06:15:06;;;;;;;6.73;6.23;;;;;;;;;;5112872;27;24413;-62
2021/08/25 06:17:32;;;;;;;6.70;6.20;;;;;;;;;;5115986;27;24446;-63
2021/08/25 06:19:57;;;;;;;7.50;6.90;;;;;;;;;;5106954;27;25334;-62
2021/08/25 06:22:22;;;;;;;7.82;7.22;;;;;;;;;;5109765;27;24477;-62
2021/08/25 06:24:47;;;;;;;8.63;7.93;;;;;;;;;;5107751;27;25160;-61
2021/08/25 06:27:12;;;;;;;9.00;8.30;;;;;;;;;;5107459;27;24406;-62
2021/08/25 06:29:37;;;;;;;8.33;7.63;;;;;;;;;;5123027;27;24490;-62
2021/08/25 06:32:03;;;;;;;8.30;7.60;;;;;;;;;;5106526;27;24396;-62
2021/08/25 06:34:28;;;;;;;7.60;7.00;;;;;;;;;;5105011;28;24438;-62
2021/08/25 06:36:53;;;;;;;8.50;7.80;;;;;;;;;;5104248;27;24466;-62
2021/08/25 06:39:19;;;;;;;6.80;6.30;;;;;;;;;;5106269;27;24410;-63
2021/08/25 06:41:44;;;;;;;6.80;6.20;;;;;;;;;;5105778;28;24425;-62
2021/08/25 06:44:09;;;;;;;6.68;6.18;;;;;;;;;;5108194;28;24414;-62
2021/08/25 06:46:34;;;;;;;7.00;6.50;;;;;;;;;;5107760;28;24512;-62
2021/08/25 06:48:59;;;;;;;6.63;6.13;;;;;;;;;;5107547;28;24966;-62
2021/08/25 06:51:24;;;;;;;6.80;6.20;;;;;;;;;;5107577;28;24510;-63
2021/08/25 06:53:50;;;;;;;7.60;7.00;;;;;;;;;;5107757;28;24413;-63
2021/08/25 06:56:15;;;;;;;8.10;7.30;;;;;;;;;;5106133;28;24965;-62
2021/08/25 06:58:40;;;;;;;7.35;6.75;;;;;;;;;;5098170;27;24432;-62
2021/08/25 07:01:05;;;;;;;7.22;6.63;;;;;;;;;;5103861;28;24410;-63
2021/08/25 07:03:30;;;;;;;8.93;8.20;;;;;;;;;;5107492;28;24475;-63
2021/08/25 07:05:55;;;;;;;7.60;7.00;;;;;;;;;;5107494;28;24421;-63
2021/08/25 07:08:20;;;;;;;7.82;7.13;;;;;;;;;;5109059;27;24463;-63
2021/08/25 07:10:46;;;;;;;8.60;7.90;;;;;;;;;;5108224;28;24486;-62
2021/08/25 07:13:11;;;;;;;7.60;6.90;;;;;;;;;;5107810;28;24405;-62
2021/08/25 07:15:36;;;;;;;7.20;6.60;;;;;;;;;;5107930;28;24380;-62
2021/08/25 07:18:01;;;;;;;6.60;6.10;;;;;;;;;;5107802;28;24741;-62
2021/08/25 07:20:26;;;;;;;8.60;7.90;;;;;;;;;;5108779;27;25027;-62
2021/08/25 07:22:51;;;;;;;7.85;7.25;;;;;;;;;;5107431;28;24390;-63
2021/08/25 07:25:17;;;;;;;8.32;7.72;;;;;;;;;;5107746;28;24505;-62
2021/08/25 07:27:42;;;;;;;8.70;8.00;;;;;;;;;;5107741;28;24382;-63
2021/08/25 07:30:08;;;;;;;9.17;8.47;;;;;;;;;;5111875;27;24555;-62
2021/08/25 07:32:34;;;;;;;8.07;7.47;;;;;;;;;;5128049;27;24389;-62
2021/08/25 07:34:59;;;;;;;8.50;7.70;;;;;;;;;;5128194;27;24444;-62
2021/08/25 07:37:24;;;;;;;7.50;6.80;;;;;;;;;;5128235;27;24393;-62
2021/08/25 07:39:49;;;;;;;7.20;6.70;;;;;;;;;;5128253;27;24479;-62
2021/08/25 07:42:15;;;;;;;8.60;7.80;;;;;;;;;;5126069;27;24520;-62
2021/08/25 07:44:40;;;;;;;6.63;6.03;;;;;;;;;;5127884;27;24385;-62
2021/08/25 07:47:05;;;;;;;9.00;8.20;;;;;;;;;;5127685;27;24405;-63
2021/08/25 07:49:31;;;;;;;9.27;8.47;;;;;;;;;;5109189;28;24440;-63
2021/08/25 07:51:58;;;;;;;8.00;7.30;;;;;;;;;;5126118;28;24412;-63
2021/08/25 07:54:23;;;;;;;7.53;6.93;;;;;;;;;;5128078;28;24820;-62
2021/08/25 07:56:48;;;;;;;9.75;8.95;;;;;;;;;;5128095;28;24906;-63
2021/08/25 07:59:13;;;;;;;8.50;7.80;;;;;;;;;;5127397;28;25036;-63
2021/08/25 08:01:38;;;;;;;6.90;6.30;;;;;;;;;;5126262;28;24500;-63
2021/08/25 08:04:03;;;;;;;8.27;7.60;;;;;;;;;;5127549;28;24378;-63
2021/08/25 08:06:29;;;;;;;8.55;7.85;;;;;;;;;;5127900;28;24381;-63
2021/08/25 08:08:54;;;;;;;7.23;6.63;;;;;;;;;;5127803;28;24450;-62
2021/08/25 08:11:19;;;;;;;6.90;6.30;;;;;;;;;;5127625;28;24405;-62
2021/08/25 08:13:44;;;;;;;9.07;8.18;;;;;;;;;;5124591;28;24485;-62
2021/08/25 08:16:09;;;;;;;7.72;7.13;;;;;;;;;;5107076;28;24396;-62
2021/08/25 08:18:38;;;;;;;6.90;6.30;;;;;;;;;;5107525;28;24811;-62
2021/08/25 08:21:03;;;;;;;7.25;6.65;;;;;;;;;;5107199;28;24400;-62
2021/08/25 08:23:28;;;;;;;7.27;6.57;;;;;;;;;;5108633;28;24947;-62
2021/08/25 08:25:54;;;;;;;7.47;6.78;;;;;;;;;;5107158;28;24819;-62
2021/08/25 08:28:20;;;;;;;6.57;5.97;;;;;;;;;;5106855;28;24448;-63
2021/08/25 08:30:45;;;;;;;7.70;6.90;;;;;;;;;;5107090;28;24970;-63
2021/08/25 08:33:10;;;;;;;8.27;7.47;;;;;;;;;;5108396;28;24444;-63
2021/08/25 08:35:36;;;;;;;8.87;7.47;;;;;;;;;;5127768;28;24497;-62
2021/08/25 08:38:06;;;;;;;8.05;7.25;;;;;;;;;;5127541;28;24377;-62
2021/08/25 08:40:31;;;;;;;7.50;6.63;;;;;;;;;;5127697;28;24401;-62
2021/08/25 08:43:03;;;;;;;7.70;7.00;;;;;;;;;;5127409;28;24411;-62
2021/08/25 08:45:28;;;;;;;6.60;6.00;;;;;;;;;;5125715;27;24410;-60
2021/08/25 08:47:54;;;;;;;5.90;5.30;;;;;;;;;;5127624;28;24500;-62
2021/08/25 08:50:19;;;;;;;5.80;5.30;;;;;;;;;;5127449;28;24547;-62
2021/08/25 08:52:44;;;;;;;5.90;5.30;;;;;;;;;;5127371;28;24801;-62
2021/08/25 08:55:09;;;;;;;5.85;5.35;;;;;;;;;;5127434;28;24914;-63
2021/08/25 08:57:35;;;;;;;5.95;5.35;;;;;;;;;;5127038;27;25023;-62
2021/08/25 09:00:00;;;;;;;5.50;5.00;;;;;;;;;;5112801;27;24428;-62
2021/08/25 09:02:45;;;;;;;5.53;5.03;;;;;;;;;;5131130;27;24863;-62
2021/08/25 09:05:23;;;;;;;5.18;4.70;;;;;;;;;;5130976;27;25193;-62
2021/08/25 09:07:49;;;;;;;7.23;4.83;;;;;;;;;;5130733;27;24412;-63
2021/08/25 09:10:19;;;;;;;5.30;4.50;;;;;;;;;;5128965;27;25051;-63
2021/08/25 09:12:48;;;;;;;5.03;4.53;;;;;;;;;;5130774;27;24397;-62
2021/08/25 09:15:20;;;;;;;5.83;4.40;;;;;;;;;;5130854;27;25295;-63
2021/08/25 09:17:45;;;;;;;4.80;3.93;;;;;;;;;;5131022;27;24485;-63
2021/08/25 09:20:10;;;;;;;5.30;4.80;;;;;;;;;;5128994;27;24508;-63
2021/08/25 09:22:36;;;;;;;6.80;4.23;;;;;;;;;;5130835;27;24491;-62
2021/08/25 09:25:01;;;;;;;4.70;4.20;;;;;;;;;;5130720;27;24437;-63
2021/08/25 09:27:26;;;;;;;4.70;4.30;;;;;;;;;;5117815;27;24418;-63
2021/08/25 09:29:56;;;;;;;5.70;4.60;;;;;;;;;;5110161;28;24425;-63
2021/08/25 09:32:23;;;;;;;4.80;4.30;;;;;;;;;;5117518;27;24409;-63
2021/08/25 09:34:53;;;;;;;6.10;4.80;;;;;;;;;;5130700;27;24418;-61
2021/08/25 09:37:18;;;;;;;4.40;4.00;;;;;;;;;;5130375;27;25265;-62
2021/08/25 09:39:46;;;;;;;5.27;4.50;;;;;;;;;;5130274;27;24388;-63
2021/08/25 09:42:12;;;;;;;5.30;4.20;;;;;;;;;;5130088;27;24949;-62
2021/08/25 09:44:37;;;;;;;3.70;3.40;;;;;;;;;;5128832;27;24421;-63
2021/08/25 09:47:03;;;;;;;4.27;3.87;;;;;;;;;;5130281;27;24782;-62
2021/08/25 09:49:28;;;;;;;4.60;4.20;;;;;;;;;;5130150;27;24466;-62
2021/08/25 09:51:54;;;;;;;4.30;3.72;;;;;;;;;;5130064;27;24396;-63
2021/08/25 09:54:20;;;;;;;4.20;3.80;;;;;;;;;;5130014;27;24800;-62
2021/08/25 09:56:45;;;;;;;4.30;3.90;;;;;;;;;;5127578;27;24974;-62
2021/08/25 09:59:11;;;;;;;4.87;4.37;;;;;;;;;;5130056;27;24735;-63
2021/08/25 10:01:37;;;;;;;4.60;3.70;;;;;;;;;;5130185;27;24381;-63
2021/08/25 10:04:06;;;;;;;5.73;4.47;;;;;;;;;;5129619;27;24758;-62
2021/08/25 10:06:32;;;;;;;4.60;3.50;;;;;;;;;;5127937;27;25013;-62
2021/08/25 10:08:57;;;;;;;4.50;3.63;;;;;;;;;;5129914;27;24420;-62
2021/08/25 10:11:27;;;;;;;6.70;4.20;;;;;;;;;;5129609;27;24429;-62
2021/08/25 10:13:52;;;;;;;4.20;3.60;;;;;;;;;;5130005;27;24433;-62
2021/08/25 10:16:38;;;;;;;7.40;4.23;;;;;;;;;;5129684;27;24491;-63
2021/08/25 10:19:22;;;;;;;4.97;3.80;;;;;;;;;;5127714;27;24421;-62
2021/08/25 10:21:47;;;;;;;5.20;3.70;;;;;;;;;;5129439;27;24397;-63
2021/08/25 10:24:12;;;;;;;3.78;3.47;;;;;;;;;;5129469;27;24723;-63
2021/08/25 10:27:06;;;;;;;4.53;4.13;;;;;;;;;;5113232;27;24398;-63
2021/08/25 10:29:31;;;;;;;3.83;3.30;;;;;;;;;;5113753;27;24429;-63
2021/08/25 10:32:02;;;;;;;4.80;4.30;;;;;;;;;;5129399;27;24979;-63
2021/08/25 10:34:28;;;;;;;5.20;4.50;;;;;;;;;;5129328;27;24501;-63
2021/08/25 10:37:12;;;;;;;4.40;4.00;;;;;;;;;;5129470;27;24413;-62
2021/08/25 10:39:38;;;;;;;4.25;3.75;;;;;;;;;;5129209;27;24461;-62
2021/08/25 10:42:04;;;;;;;4.22;3.75;;;;;;;;;;5127144;27;24532;-62
2021/08/25 10:44:45;;;;;;;4.27;3.50;;;;;;;;;;5129035;27;24961;-63
2021/08/25 10:47:12;;;;;;;4.20;3.80;;;;;;;;;;5129080;27;24393;-63
2021/08/25 10:49:41;;;;;;;4.97;4.05;;;;;;;;;;5128780;27;24433;-63
2021/08/25 10:52:28;;;;;;;5.30;4.15;;;;;;;;;;5126994;27;24634;-62
2021/08/25 10:54:55;;;;;;;4.70;3.90;;;;;;;;;;5111189;27;24414;-62
2021/08/25 10:57:21;;;;;;;4.00;3.60;;;;;;;;;;5108242;28;25244;-62
2021/08/25 10:59:47;;;;;;;4.28;3.88;;;;;;;;;;5108551;28;24405;-63
2021/08/25 11:02:13;;;;;;;3.50;3.20;;;;;;;;;;5107889;28;24945;-62
2021/08/25 11:04:38;;;;;;;4.10;3.70;;;;;;;;;;5109231;27;24471;-63
2021/08/25 11:07:06;;;;;;;3.90;3.60;;;;;;;;;;5108107;28;24397;-63
2021/08/25 11:09:31;;;;;;;4.60;3.93;;;;;;;;;;5107819;28;24470;-62
2021/08/25 11:11:57;;;;;;;4.32;3.33;;;;;;;;;;5107928;28;24418;-63
2021/08/25 11:14:27;;;;;;;4.22;3.60;;;;;;;;;;5107655;28;24401;-62
2021/08/25 11:16:54;;;;;;;3.03;2.80;;;;;;;;;;5127190;27;24504;-63
2021/08/25 11:19:27;;;;;;;3.63;3.30;;;;;;;;;;5128044;27;24401;-62
2021/08/25 11:21:53;;;;;;;3.90;3.60;;;;;;;;;;5128044;27;24494;-62
2021/08/25 11:24:18;;;;;;;3.60;3.30;;;;;;;;;;5121938;27;24486;-62
2021/08/25 11:26:43;;;;;;;4.30;3.90;;;;;;;;;;5107981;28;24381;-62
2021/08/25 11:29:16;;;;;;;4.30;3.63;;;;;;;;;;5126383;27;24458;-62
2021/08/25 11:31:41;;;;;;;4.43;3.63;;;;;;;;;;5128138;27;24505;-63
2021/08/25 11:34:06;;;;;;;3.40;3.10;;;;;;;;;;5128073;27;24522;-62
2021/08/25 11:36:31;;;;;;;4.60;3.60;;;;;;;;;;5128559;27;24442;-62
2021/08/25 11:38:56;;;;;;;5.67;3.97;;;;;;;;;;5128292;27;24382;-62
2021/08/25 11:41:22;;;;;;;3.92;3.50;;;;;;;;;;5126197;27;24424;-63
2021/08/25 11:43:48;;;;;;;3.67;3.20;;;;;;;;;;5128339;27;24401;-63
2021/08/25 11:46:21;;;;;;;4.18;3.60;;;;;;;;;;5127971;27;24402;-63
2021/08/25 11:48:47;;;;;;;3.50;3.20;;;;;;;;;;5128264;27;24446;-62
2021/08/25 11:51:12;;;;;;;3.90;3.27;;;;;;;;;;5126116;27;24783;-62
2021/08/25 11:53:40;;;;;;;3.57;3.27;;;;;;;;;;5128120;28;24488;-62
2021/08/25 11:56:08;;;;;;;4.35;3.72;;;;;;;;;;5126699;28;24409;-63
2021/08/25 11:58:34;;;;;;;5.20;3.33;;;;;;;;;;5110062;28;24467;-62
2021/08/25 12:00:59;;;;;;;3.20;2.90;;;;;;;;;;5109531;28;24421;-62
2021/08/25 12:03:41;;;;;;;3.90;3.50;;;;;;;;;;5117178;28;24531;-62
2021/08/25 12:06:06;;;;;;;5.35;4.20;;;;;;;;;;5121128;28;24422;-63
2021/08/25 12:08:42;;;;;;;4.70;3.60;;;;;;;;;;5104580;28;24476;-63
2021/08/25 12:11:08;;;;;;;3.80;3.50;;;;;;;;;;5105181;28;24474;-62
2021/08/25 12:13:34;;;;;;;3.60;3.30;;;;;;;;;;5118714;28;24962;-62
2021/08/25 12:16:00;;;;;;;3.70;3.40;;;;;;;;;;5124876;28;24413;-63
2021/08/25 12:18:27;;;;;;;4.30;3.58;;;;;;;;;;5124711;28;25037;-63
2021/08/25 12:20:54;;;;;;;3.80;3.20;;;;;;;;;;5125201;28;24759;-62
2021/08/25 12:23:20;;;;;;;3.80;3.40;;;;;;;;;;5116364;28;24412;-63
2021/08/25 12:25:45;;;;;;;4.10;3.60;;;;;;;;;;5107044;28;24420;-63
2021/08/25 12:28:29;;;;;;;3.90;3.50;;;;;;;;;;5116144;28;24507;-63
2021/08/25 12:31:08;;;;;;;3.97;3.38;;;;;;;;;;5104320;28;24452;-63
2021/08/25 12:33:33;;;;;;;4.38;3.70;;;;;;;;;;5107272;28;24398;-62
2021/08/25 12:36:17;;;;;;;4.20;3.60;;;;;;;;;;5108306;28;24499;-62
2021/08/25 12:38:42;;;;;;;3.50;3.10;;;;;;;;;;5108602;27;24521;-63
2021/08/25 12:41:08;;;;;;;3.43;3.13;;;;;;;;;;5108483;28;24493;-62
2021/08/25 12:43:33;;;;;;;3.80;3.40;;;;;;;;;;5107933;28;24390;-62
2021/08/25 12:45:58;;;;;;;3.60;3.30;;;;;;;;;;5108031;28;24425;-62
2021/08/25 12:48:23;;;;;;;3.80;3.30;;;;;;;;;;5108812;27;25249;-62
2021/08/25 12:50:48;;;;;;;4.03;3.63;;;;;;;;;;5120433;27;24438;-62
2021/08/25 12:53:13;;;;;;;3.90;3.50;;;;;;;;;;5128005;27;24430;-63
2021/08/25 12:55:38;;;;;;;3.80;3.40;;;;;;;;;;5107209;27;24423;-63
2021/08/25 12:58:04;;;;;;;4.40;3.80;;;;;;;;;;5108343;27;24829;-63
2021/08/25 13:00:29;;;;;;;4.45;3.42;;;;;;;;;;5117654;27;24974;-63
2021/08/25 13:02:54;;;;;;;3.75;3.13;;;;;;;;;;5116697;27;24425;-63
2021/08/25 13:05:19;;;;;;;3.22;2.90;;;;;;;;;;5111301;27;24410;-63
2021/08/25 13:07:44;;;;;;;4.10;3.40;;;;;;;;;;5109963;28;24466;-63
2021/08/25 13:10:10;;;;;;;3.13;2.90;;;;;;;;;;5110388;28;25037;-63
2021/08/25 13:12:35;;;;;;;3.90;3.50;;;;;;;;;;5119659;27;24409;-63
2021/08/25 13:15:00;;;;;;;3.80;3.40;;;;;;;;;;5111412;27;24504;-63
2021/08/25 13:17:25;;;;;;;4.47;3.73;;;;;;;;;;5110045;28;24485;-64
2021/08/25 13:19:51;;;;;;;4.00;3.60;;;;;;;;;;5110853;27;24470;-63
2021/08/25 13:22:16;;;;;;;3.80;3.30;;;;;;;;;;5122068;27;24558;-63
2021/08/25 13:24:41;;;;;;;4.30;3.90;;;;;;;;;;5114769;27;24462;-63
2021/08/25 13:27:06;;;;;;;3.22;2.92;;;;;;;;;;5110076;28;24412;-63
2021/08/25 13:29:31;;;;;;;3.03;2.70;;;;;;;;;;5114464;27;25008;-63
2021/08/25 13:31:56;;;;;;;3.90;3.40;;;;;;;;;;5127069;27;24482;-63
2021/08/25 13:34:22;;;;;;;4.50;3.70;;;;;;;;;;5130089;27;24936;-65
2021/08/25 13:36:47;;;;;;;4.00;3.60;;;;;;;;;;5130589;27;24735;-64
2021/08/25 13:39:12;;;;;;;4.17;3.70;;;;;;;;;;5130470;27;24397;-64
2021/08/25 13:41:37;;;;;;;3.30;3.00;;;;;;;;;;5119575;27;24529;-65
2021/08/25 13:44:02;;;;;;;3.73;3.40;;;;;;;;;;5109475;28;24398;-63
2021/08/25 13:46:29;;;;;;;4.30;3.80;;;;;;;;;;5109461;28;24996;-63
2021/08/25 13:48:54;;;;;;;3.67;3.38;;;;;;;;;;5106589;28;24413;-64
2021/08/25 13:51:19;;;;;;;4.10;3.70;;;;;;;;;;5112825;27;24429;-65
2021/08/25 13:53:44;;;;;;;3.40;3.10;;;;;;;;;;5110683;27;24424;-64
2021/08/25 13:56:09;;;;;;;4.10;3.70;;;;;;;;;;5109556;28;24406;-63
2021/08/25 13:58:34;;;;;;;3.47;3.17;;;;;;;;;;5113046;27;24500;-63
2021/08/25 14:00:59;;;;;;;3.70;3.40;;;;;;;;;;5109728;28;24489;-64
2021/08/25 14:03:25;;;;;;;3.63;3.30;;;;;;;;;;5105027;28;24413;-63
2021/08/25 14:05:50;;;;;;;3.70;3.10;;;;;;;;;;5100414;28;24425;-65
2021/08/25 14:08:15;;;;;;;4.03;3.20;;;;;;;;;;5108957;28;24545;-64
2021/08/25 14:10:40;;;;;;;3.63;3.33;;;;;;;;;;5122652;27;24816;-64
2021/08/25 14:13:05;;;;;;;3.53;3.00;;;;;;;;;;5129604;27;24446;-65
2021/08/25 14:15:33;;;;;;;3.40;3.10;;;;;;;;;;5129568;27;24392;-64
2021/08/25 14:18:02;;;;;;;3.45;3.15;;;;;;;;;;5129606;27;24401;-64
2021/08/25 14:20:27;;;;;;;3.40;3.10;;;;;;;;;;5127464;27;24508;-64
2021/08/25 14:22:52;;;;;;;3.60;3.30;;;;;;;;;;5129751;27;24464;-64
2021/08/25 14:25:17;;;;;;;3.50;3.00;;;;;;;;;;5129684;27;24800;-64
2021/08/25 14:27:42;;;;;;;3.47;3.17;;;;;;;;;;5129258;27;24403;-65
2021/08/25 14:30:08;;;;;;;3.92;3.22;;;;;;;;;;5129514;27;24458;-65
2021/08/25 14:32:33;;;;;;;3.30;3.00;;;;;;;;;;5110976;27;24476;-64
2021/08/25 14:34:58;;;;;;;3.40;3.10;;;;;;;;;;5108735;28;24944;-64
2021/08/25 14:37:23;;;;;;;3.83;3.43;;;;;;;;;;5108508;28;24409;-65